Time;durP1;ratioP1;P1;durP2;ratioP2;P2;SDS_P1;SDS_P2;PMS_P1;PMS_P2;Temp;Humidity;BMP_temperature;BMP_pressure;BME280_temperature;BME280_humidity;BME280_pressure;Samples;Min_cycle;Max_cycle;Signal;HPM_P1;HPM_P2
2023/12/28 00:01:04;;;;;;;;;;;;;;;;;;5094574;28;896;-58
2023/12/28 00:03:29;;;;;;;;;;;;;;;;;;5093360;28;1252;-58
2023/12/28 00:05:55;;;;;;;;;;;;;;;;;;5094978;28;1054;-58
2023/12/28 00:08:20;;;;;;;;;;;;;;;;;;5094353;28;765;-58
2023/12/28 00:10:45;;;;;;;;;;;;;;;;;;5094878;28;896;-57
2023/12/28 00:13:11;;;;;;;;;;;;;;;;;;5094343;28;840;-57
2023/12/28 00:15:36;;;;;;;;;;;;;;;;;;5094001;28;1913;-57
2023/12/28 00:18:01;;;;;;;;;;;;;;;;;;5094778;28;846;-57
2023/12/28 00:20:26;;;;;;;;;;;;;;;;;;5093702;28;1207;-57
2023/12/28 00:22:52;;;;;;;;;;;;;;;;;;5092160;28;879;-57
2023/12/28 00:25:17;;;;;;;;;;;;;;;;;;5090844;28;848;-57
2023/12/28 00:27:42;;;;;;;;;;;;;;;;;;5092082;28;963;-58
2023/12/28 00:30:08;;;;;;;;;;;;;;;;;;5090989;28;866;-58
2023/12/28 00:32:33;;;;;;;;;;;;;;;;;;5090903;28;1268;-58
2023/12/28 00:34:58;;;;;;;;;;;;;;;;;;5092158;28;1967;-57
2023/12/28 00:37:24;;;;;;;;;;;;;;;;;;5093671;28;918;-57
2023/12/28 00:39:50;;;;;;;;;;;;;;;;;;5094092;28;857;-58
2023/12/28 00:42:15;;;;;;;;;;;;;;;;;;5094412;28;933;-57
2023/12/28 00:44:41;;;;;;;;;;;;;;;;;;5093982;28;900;-57
2023/12/28 00:47:06;;;;;;;;;;;;;;;;;;5094268;28;899;-57
2023/12/28 00:49:32;;;;;;;;;;;;;;;;;;5096297;28;852;-58
2023/12/28 00:51:57;;;;;;;;;;;;;;;;;;5098253;28;852;-58
2023/12/28 00:54:22;;;;;;;;;;;;;;;;;;5096519;28;1150;-56
2023/12/28 00:56:47;;;;;;;;;;;;;;;;;;5098123;28;1977;-57
2023/12/28 00:59:13;;;;;;;;;;;;;;;;;;5097948;28;987;-57
2023/12/28 01:01:38;;;;;;;;;;;;;;;;;;5097801;28;938;-56
2023/12/28 01:04:03;;;;;;;;;;;;;;;;;;5097612;28;935;-57
2023/12/28 01:06:29;;;;;;;;;;;;;;;;;;5098230;28;820;-57
2023/12/28 01:08:54;;;;;;;;;;;;;;;;;;5097547;28;820;-57
2023/12/28 01:11:20;;;;;;;;;;;;;;;;;;5097658;28;866;-57
2023/12/28 01:13:45;;;;;;;;;;;;;;;;;;5096041;28;1398;-57
2023/12/28 01:16:12;;;;;;;;;;;;;;;;;;5095913;28;1893;-57
2023/12/28 01:18:37;;;;;;;;;;;;;;;;;;5098232;28;836;-57
2023/12/28 01:21:03;;;;;;;;;;;;;;;;;;5097623;28;851;-57
2023/12/28 01:23:28;;;;;;;;;;;;;;;;;;5097306;28;939;-57
2023/12/28 01:25:54;;;;;;;;;;;;;;;;;;5096993;28;1074;-57
2023/12/28 01:28:20;;;;;;;;;;;;;;;;;;5097279;28;852;-57
2023/12/28 01:30:45;;;;;;;;;;;;;;;;;;5097793;28;824;-57
2023/12/28 01:33:11;;;;;;;;;;;;;;;;;;5079003;28;1813;-58
2023/12/28 01:35:36;;;;;;;;;;;;;;;;;;5097532;28;1930;-57
2023/12/28 01:38:01;;;;;;;;;;;;;;;;;;5079355;28;1283;-58
2023/12/28 01:40:27;;;;;;;;;;;;;;;;;;5097101;28;847;-58
2023/12/28 01:42:52;;;;;;;;;;;;;;;;;;5097446;28;906;-57
2023/12/28 01:45:17;;;;;;;;;;;;;;;;;;5096374;28;1066;-57
2023/12/28 01:47:43;;;;;;;;;;;;;;;;;;5095096;28;1098;-58
2023/12/28 01:50:08;;;;;;;;;;;;;;;;;;5095299;28;789;-58
2023/12/28 01:52:34;;;;;;;;;;;;;;;;;;5093517;28;634;-57
2023/12/28 01:55:00;;;;;;;;;;;;;;;;;;5094740;28;1902;-57
2023/12/28 01:57:25;;;;;;;;;;;;;;;;;;5086570;28;1226;-57
2023/12/28 01:59:51;;;;;;;;;;;;;;;;;;5077056;28;1230;-58
2023/12/28 02:02:16;;;;;;;;;;;;;;;;;;5076120;28;942;-58
2023/12/28 02:04:42;;;;;;;;;;;;;;;;;;5076932;28;824;-57
2023/12/28 02:07:08;;;;;;;;;;;;;;;;;;5076048;28;840;-56
2023/12/28 02:09:33;;;;;;;;;;;;;;;;;;5076156;28;911;-57
2023/12/28 02:11:58;;;;;;;;;;;;;;;;;;5075959;28;904;-57
2023/12/28 02:14:24;;;;;;;;;;;;;;;;;;5075874;28;943;-57
2023/12/28 02:16:58;;;;;;;;;;;;;;;;;;5075557;28;1906;-57
2023/12/28 02:19:32;;;;;;;;;;;;;;;;;;5075648;28;908;-58
2023/12/28 02:21:59;;;;;;;;;;;;;;;;;;5075705;28;868;-58
2023/12/28 02:24:24;;;;;;;;;;;;;;;;;;5075655;28;1180;-60
2023/12/28 02:26:49;;;;;;;;;;;;;;;;;;5075993;28;935;-56
2023/12/28 02:29:15;;;;;;;;;;;;;;;;;;5075607;28;1152;-57
2023/12/28 02:31:45;;;;;;;;;;;;;;;;;;5075899;28;931;-58
2023/12/28 02:34:15;;;;;;;;;;;;;;;;;;5075515;28;1026;-57
2023/12/28 02:36:41;;;;;;;;;;;;;;;;;;5075610;28;1981;-57
2023/12/28 02:39:07;;;;;;;;;;;;;;;;;;5076050;28;1222;-57
2023/12/28 02:41:33;;;;;;;;;;;;;;;;;;5075432;28;829;-57
2023/12/28 02:43:58;;;;;;;;;;;;;;;;;;5075529;28;913;-58
2023/12/28 02:46:23;;;;;;;;;;;;;;;;;;5075568;28;927;-57
2023/12/28 02:48:49;;;;;;;;;;;;;;;;;;5075294;28;1259;-57
2023/12/28 02:51:16;;;;;;;;;;;;;;;;;;5075483;28;893;-57
2023/12/28 02:53:41;;;;;;;;;;;;;;;;;;5075084;28;897;-57
2023/12/28 02:56:06;;;;;;;;;;;;;;;;;;5073857;28;1975;-57
2023/12/28 02:58:31;;;;;;;;;;;;;;;;;;5074816;28;932;-57
2023/12/28 03:00:57;;;;;;;;;;;;;;;;;;5075017;28;924;-58
2023/12/28 03:03:22;;;;;;;;;;;;;;;;;;5075504;28;876;-57
2023/12/28 03:05:47;;;;;;;;;;;;;;;;;;5074958;28;940;-57
2023/12/28 03:08:13;;;;;;;;;;;;;;;;;;5075286;28;1062;-57
2023/12/28 03:10:38;;;;;;;;;;;;;;;;;;5075002;28;908;-58
2023/12/28 03:13:03;;;;;;;;;;;;;;;;;;5073167;28;848;-57
2023/12/28 03:15:29;;;;;;;;;;;;;;;;;;5074898;28;1898;-58
2023/12/28 03:17:54;;;;;;;;;;;;;;;;;;5074068;28;817;-57
2023/12/28 03:20:19;;;;;;;;;;;;;;;;;;5075130;28;915;-56
2023/12/28 03:22:45;;;;;;;;;;;;;;;;;;5075063;28;1086;-57
2023/12/28 03:25:10;;;;;;;;;;;;;;;;;;5073525;28;1082;-56
2023/12/28 03:27:35;;;;;;;;;;;;;;;;;;5075041;28;959;-57
2023/12/28 03:30:01;;;;;;;;;;;;;;;;;;5056698;28;2097;-57
2023/12/28 03:32:26;;;;;;;;;;;;;;;;;;5074911;28;840;-57
2023/12/28 03:34:51;;;;;;;;;;;;;;;;;;5073159;28;868;-57
2023/12/28 03:37:16;;;;;;;;;;;;;;;;;;5074354;28;1973;-57
2023/12/28 03:39:42;;;;;;;;;;;;;;;;;;5074621;28;927;-57
2023/12/28 03:42:07;;;;;;;;;;;;;;;;;;5073010;28;896;-57
2023/12/28 03:44:32;;;;;;;;;;;;;;;;;;5074790;28;785;-57
2023/12/28 03:46:57;;;;;;;;;;;;;;;;;;5074328;28;962;-57
2023/12/28 03:49:23;;;;;;;;;;;;;;;;;;5074520;28;1469;-57
2023/12/28 03:51:49;;;;;;;;;;;;;;;;;;5074783;28;903;-56
2023/12/28 03:54:18;;;;;;;;;;;;;;;;;;5074025;28;886;-57
2023/12/28 03:56:43;;;;;;;;;;;;;;;;;;5074346;28;1897;-57
2023/12/28 03:59:12;;;;;;;;;;;;;;;;;;5073188;28;1286;-57
2023/12/28 04:01:37;;;;;;;;;;;;;;;;;;5074397;28;825;-57
2023/12/28 04:04:03;;;;;;;;;;;;;;;;;;5073991;28;891;-57
2023/12/28 04:06:28;;;;;;;;;;;;;;;;;;5074371;28;856;-57
2023/12/28 04:08:53;;;;;;;;;;;;;;;;;;5073792;28;1018;-57
2023/12/28 04:11:19;;;;;;;;;;;;;;;;;;5073899;28;935;-57
2023/12/28 04:13:44;;;;;;;;;;;;;;;;;;5073952;28;781;-57
2023/12/28 04:16:13;;;;;;;;;;;;;;;;;;5072341;28;1965;-57
2023/12/28 04:18:39;;;;;;;;;;;;;;;;;;5072923;28;777;-57
2023/12/28 04:21:07;;;;;;;;;;;;;;;;;;5073630;28;956;-58
2023/12/28 04:23:32;;;;;;;;;;;;;;;;;;5074962;28;899;-57
2023/12/28 04:25:58;;;;;;;;;;;;;;;;;;5077834;28;852;-57
2023/12/28 04:28:23;;;;;;;;;;;;;;;;;;5078602;28;824;-57
2023/12/28 04:30:48;;;;;;;;;;;;;;;;;;5076673;28;821;-58
2023/12/28 04:33:16;;;;;;;;;;;;;;;;;;5078289;28;965;-58
2023/12/28 04:35:41;;;;;;;;;;;;;;;;;;5077909;28;1905;-57
2023/12/28 04:38:08;;;;;;;;;;;;;;;;;;5077994;28;975;-58
2023/12/28 04:40:33;;;;;;;;;;;;;;;;;;5078051;28;828;-57
2023/12/28 04:42:59;;;;;;;;;;;;;;;;;;5077857;28;959;-58
2023/12/28 04:45:24;;;;;;;;;;;;;;;;;;5076669;28;971;-57
2023/12/28 04:47:49;;;;;;;;;;;;;;;;;;5077309;28;907;-57
2023/12/28 04:50:14;;;;;;;;;;;;;;;;;;5076239;28;1221;-57
2023/12/28 04:52:40;;;;;;;;;;;;;;;;;;5077991;28;828;-58
2023/12/28 04:55:06;;;;;;;;;;;;;;;;;;5078017;28;1987;-57
2023/12/28 04:57:31;;;;;;;;;;;;;;;;;;5078110;28;1030;-57
2023/12/28 04:59:56;;;;;;;;;;;;;;;;;;5077872;28;653;-56
2023/12/28 05:02:22;;;;;;;;;;;;;;;;;;5074311;28;1222;-58
2023/12/28 05:04:47;;;;;;;;;;;;;;;;;;5087135;28;1171;-57
2023/12/28 05:07:12;;;;;;;;;;;;;;;;;;5082902;28;1156;-57
2023/12/28 05:09:38;;;;;;;;;;;;;;;;;;5077554;28;1222;-58
2023/12/28 05:12:03;;;;;;;;;;;;;;;;;;5083006;28;1156;-58
2023/12/28 05:14:28;;;;;;;;;;;;;;;;;;5077982;28;1140;-58
2023/12/28 05:16:54;;;;;;;;;;;;;;;;;;5072716;28;1898;-57
2023/12/28 05:19:19;;;;;;;;;;;;;;;;;;5076548;28;1054;-57
2023/12/28 05:21:44;;;;;;;;;;;;;;;;;;5077197;28;895;-57
2023/12/28 05:24:10;;;;;;;;;;;;;;;;;;5077390;28;939;-57
2023/12/28 05:26:35;;;;;;;;;;;;;;;;;;5076193;28;860;-56
2023/12/28 05:29:00;;;;;;;;;;;;;;;;;;5077226;28;821;-57
2023/12/28 05:31:26;;;;;;;;;;;;;;;;;;5077422;28;998;-58
2023/12/28 05:33:51;;;;;;;;;;;;;;;;;;5076541;28;883;-56
2023/12/28 05:36:16;;;;;;;;;;;;;;;;;;5075188;28;1897;-56
2023/12/28 05:38:41;;;;;;;;;;;;;;;;;;5076725;28;852;-57
2023/12/28 05:41:09;;;;;;;;;;;;;;;;;;5076924;28;892;-58
2023/12/28 05:43:34;;;;;;;;;;;;;;;;;;5076565;28;828;-58
2023/12/28 05:45:59;;;;;;;;;;;;;;;;;;5075441;28;951;-58
2023/12/28 05:48:25;;;;;;;;;;;;;;;;;;5076341;28;892;-58
2023/12/28 05:50:50;;;;;;;;;;;;;;;;;;5076222;28;860;-57
2023/12/28 05:53:15;;;;;;;;;;;;;;;;;;5076249;28;996;-58
2023/12/28 05:55:41;;;;;;;;;;;;;;;;;;5058427;28;1965;-57
2023/12/28 05:58:06;;;;;;;;;;;;;;;;;;5076648;28;891;-57
2023/12/28 06:00:31;;;;;;;;;;;;;;;;;;5075867;28;904;-57
2023/12/28 06:02:56;;;;;;;;;;;;;;;;;;5075778;28;836;-57
2023/12/28 06:05:22;;;;;;;;;;;;;;;;;;5075213;28;1121;-57
2023/12/28 06:07:47;;;;;;;;;;;;;;;;;;5075939;28;1054;-57
2023/12/28 06:10:12;;;;;;;;;;;;;;;;;;5076102;28;1217;-57
2023/12/28 06:12:37;;;;;;;;;;;;;;;;;;5076520;28;927;-57
2023/12/28 06:15:03;;;;;;;;;;;;;;;;;;5076189;28;828;-57
2023/12/28 06:17:28;;;;;;;;;;;;;;;;;;5076179;28;1914;-57
2023/12/28 06:19:53;;;;;;;;;;;;;;;;;;5074630;28;978;-57
2023/12/28 06:22:19;;;;;;;;;;;;;;;;;;5075678;28;813;-58
2023/12/28 06:24:45;;;;;;;;;;;;;;;;;;5074962;28;888;-56
2023/12/28 06:27:10;;;;;;;;;;;;;;;;;;5075129;28;865;-57
2023/12/28 06:29:36;;;;;;;;;;;;;;;;;;5075856;28;911;-57
2023/12/28 06:32:01;;;;;;;;;;;;;;;;;;5076087;28;991;-56
2023/12/28 06:34:26;;;;;;;;;;;;;;;;;;5076123;28;845;-57
2023/12/28 06:36:52;;;;;;;;;;;;;;;;;;5074424;28;1910;-58
2023/12/28 06:39:17;;;;;;;;;;;;;;;;;;5076109;28;841;-57
2023/12/28 06:41:42;;;;;;;;;;;;;;;;;;5075573;28;1070;-58
2023/12/28 06:44:08;;;;;;;;;;;;;;;;;;5074851;28;817;-58
2023/12/28 06:46:33;;;;;;;;;;;;;;;;;;5075637;28;884;-56
2023/12/28 06:48:59;;;;;;;;;;;;;;;;;;5075336;28;903;-57
2023/12/28 06:51:24;;;;;;;;;;;;;;;;;;5074038;28;941;-57
2023/12/28 06:53:49;;;;;;;;;;;;;;;;;;5075274;28;1089;-57
2023/12/28 06:56:14;;;;;;;;;;;;;;;;;;5075586;28;1936;-57
2023/12/28 06:58:40;;;;;;;;;;;;;;;;;;5075439;28;895;-58
2023/12/28 07:01:05;;;;;;;;;;;;;;;;;;5075385;28;821;-58
2023/12/28 07:03:32;;;;;;;;;;;;;;;;;;5072707;28;1328;-56
2023/12/28 07:06:00;;;;;;;;;;;;;;;;;;5073011;28;887;-57
2023/12/28 07:08:25;;;;;;;;;;;;;;;;;;5071861;28;848;-57
2023/12/28 07:10:51;;;;;;;;;;;;;;;;;;5073002;28;1011;-57
2023/12/28 07:13:16;;;;;;;;;;;;;;;;;;5073828;28;872;-57
2023/12/28 07:15:41;;;;;;;;;;;;;;;;;;5073369;28;1955;-57
2023/12/28 07:18:06;;;;;;;;;;;;;;;;;;5073061;28;958;-57
2023/12/28 07:20:32;;;;;;;;;;;;;;;;;;5072588;28;1064;-58
2023/12/28 07:22:57;;;;;;;;;;;;;;;;;;5074489;28;967;-58
2023/12/28 07:25:22;;;;;;;;;;;;;;;;;;5075022;28;884;-57
2023/12/28 07:27:48;;;;;;;;;;;;;;;;;;5074653;28;951;-57
2023/12/28 07:30:13;;;;;;;;;;;;;;;;;;5074768;28;816;-57
2023/12/28 07:32:39;;;;;;;;;;;;;;;;;;5074449;28;828;-57
2023/12/28 07:35:04;;;;;;;;;;;;;;;;;;5072404;28;1699;-56
2023/12/28 07:37:29;;;;;;;;;;;;;;;;;;5074396;28;1898;-56
2023/12/28 07:39:54;;;;;;;;;;;;;;;;;;5074267;28;915;-57
2023/12/28 07:42:20;;;;;;;;;;;;;;;;;;5073748;28;852;-57
2023/12/28 07:44:45;;;;;;;;;;;;;;;;;;5073412;28;753;-57
2023/12/28 07:47:12;;;;;;;;;;;;;;;;;;5056261;28;1229;-57
2023/12/28 07:49:37;;;;;;;;;;;;;;;;;;5074232;28;1022;-57
2023/12/28 07:52:02;;;;;;;;;;;;;;;;;;5074205;28;1198;-58
2023/12/28 07:54:28;;;;;;;;;;;;;;;;;;5074560;28;1100;-57
2023/12/28 07:56:53;;;;;;;;;;;;;;;;;;5074124;28;1914;-58
2023/12/28 07:59:18;;;;;;;;;;;;;;;;;;5073614;28;899;-58
2023/12/28 08:01:44;;;;;;;;;;;;;;;;;;5073377;28;1128;-57
2023/12/28 08:04:09;;;;;;;;;;;;;;;;;;5073111;28;848;-57
2023/12/28 08:06:34;;;;;;;;;;;;;;;;;;5072482;28;860;-58
2023/12/28 08:09:00;;;;;;;;;;;;;;;;;;5072310;28;887;-58
2023/12/28 08:11:28;;;;;;;;;;;;;;;;;;5072468;28;844;-58
2023/12/28 08:13:54;;;;;;;;;;;;;;;;;;5072302;28;852;-58
2023/12/28 08:16:19;;;;;;;;;;;;;;;;;;5072363;28;1882;-56
2023/12/28 08:18:44;;;;;;;;;;;;;;;;;;5070819;28;955;-56
2023/12/28 08:21:10;;;;;;;;;;;;;;;;;;5072606;28;896;-58
2023/12/28 08:23:35;;;;;;;;;;;;;;;;;;5071533;28;931;-57
2023/12/28 08:26:00;;;;;;;;;;;;;;;;;;5072646;28;888;-57
2023/12/28 08:28:26;;;;;;;;;;;;;;;;;;5054224;28;923;-56
2023/12/28 08:30:51;;;;;;;;;;;;;;;;;;5072279;28;999;-57
2023/12/28 08:33:16;;;;;;;;;;;;;;;;;;5072267;28;889;-57
2023/12/28 08:35:41;;;;;;;;;;;;;;;;;;5069486;28;1901;-57
2023/12/28 08:38:07;;;;;;;;;;;;;;;;;;5073546;28;923;-57
2023/12/28 08:40:32;;;;;;;;;;;;;;;;;;5074080;28;809;-57
2023/12/28 08:42:57;;;;;;;;;;;;;;;;;;5074294;28;1090;-58
2023/12/28 08:45:22;;;;;;;;;;;;;;;;;;5074088;28;986;-57
2023/12/28 08:47:48;;;;;;;;;;;;;;;;;;5074326;28;880;-58
2023/12/28 08:50:13;;;;;;;;;;;;;;;;;;5074022;28;954;-58
2023/12/28 08:52:38;;;;;;;;;;;;;;;;;;5074156;28;900;-57
2023/12/28 08:55:04;;;;;;;;;;;;;;;;;;5072494;28;910;-55
2023/12/28 08:57:31;;;;;;;;;;;;;;;;;;5073928;28;1963;-57
2023/12/28 08:59:56;;;;;;;;;;;;;;;;;;5073744;28;853;-56
2023/12/28 09:02:21;;;;;;;;;;;;;;;;;;5073465;28;986;-57
2023/12/28 09:04:46;;;;;;;;;;;;;;;;;;5072400;28;877;-57
2023/12/28 09:07:13;;;;;;;;;;;;;;;;;;5071997;28;843;-58
2023/12/28 09:09:38;;;;;;;;;;;;;;;;;;5072840;28;848;-57
2023/12/28 09:12:03;;;;;;;;;;;;;;;;;;5077269;28;911;-58
2023/12/28 09:14:29;;;;;;;;;;;;;;;;;;5076740;28;820;-57
2023/12/28 09:16:54;;;;;;;;;;;;;;;;;;5075609;28;1973;-57
2023/12/28 09:19:19;;;;;;;;;;;;;;;;;;5076560;28;801;-57
2023/12/28 09:21:44;;;;;;;;;;;;;;;;;;5075488;28;907;-57
2023/12/28 09:24:10;;;;;;;;;;;;;;;;;;5076989;28;884;-57
2023/12/28 09:26:35;;;;;;;;;;;;;;;;;;5076034;28;1025;-57
2023/12/28 09:29:00;;;;;;;;;;;;;;;;;;5075597;28;881;-57
2023/12/28 09:31:26;;;;;;;;;;;;;;;;;;5077217;28;1117;-57
2023/12/28 09:33:52;;;;;;;;;;;;;;;;;;5076454;28;935;-57
2023/12/28 09:36:17;;;;;;;;;;;;;;;;;;5077133;28;1967;-57
2023/12/28 09:38:42;;;;;;;;;;;;;;;;;;5075226;28;2172;-57
2023/12/28 09:41:15;;;;;;;;;;;;;;;;;;5075541;28;1406;-57
2023/12/28 09:43:45;;;;;;;;;;;;;;;;;;5076616;28;832;-56
2023/12/28 09:46:11;;;;;;;;;;;;;;;;;;5076634;28;1023;-57
2023/12/28 09:48:38;;;;;;;;;;;;;;;;;;5076357;28;849;-57
2023/12/28 09:51:03;;;;;;;;;;;;;;;;;;5076363;28;832;-57
2023/12/28 09:53:29;;;;;;;;;;;;;;;;;;5076538;28;980;-56
2023/12/28 09:55:54;;;;;;;;;;;;;;;;;;5076790;28;1922;-57
2023/12/28 09:58:20;;;;;;;;;;;;;;;;;;5075644;28;829;-57
2023/12/28 10:00:46;;;;;;;;;;;;;;;;;;5073991;28;853;-56
2023/12/28 10:03:18;;;;;;;;;;;;;;;;;;5076425;28;966;-57
2023/12/28 10:05:44;;;;;;;;;;;;;;;;;;5075779;28;856;-57
2023/12/28 10:08:13;;;;;;;;;;;;;;;;;;5074918;28;1028;-57
2023/12/28 10:10:38;;;;;;;;;;;;;;;;;;5074111;28;911;-57
2023/12/28 10:13:03;;;;;;;;;;;;;;;;;;5074326;28;995;-57
2023/12/28 10:15:30;;;;;;;;;;;;;;;;;;5072755;28;1969;-57
2023/12/28 10:17:56;;;;;;;;;;;;;;;;;;5074046;28;872;-57
2023/12/28 10:20:21;;;;;;;;;;;;;;;;;;5074692;28;946;-58
2023/12/28 10:22:47;;;;;;;;;;;;;;;;;;5073523;28;1157;-56
2023/12/28 10:25:12;;;;;;;;;;;;;;;;;;5075628;28;817;-57
2023/12/28 10:27:38;;;;;;;;;;;;;;;;;;5075920;28;999;-56
2023/12/28 10:30:03;;;;;;;;;;;;;;;;;;5075590;28;814;-57
2023/12/28 10:32:29;;;;;;;;;;;;;;;;;;5074781;28;1398;-57
2023/12/28 10:34:54;;;;;;;;;;;;;;;;;;5074354;28;1206;-58
2023/12/28 10:37:20;;;;;;;;;;;;;;;;;;5075636;28;1954;-57
2023/12/28 10:39:47;;;;;;;;;;;;;;;;;;5075407;28;895;-58
2023/12/28 10:42:14;;;;;;;;;;;;;;;;;;5075755;28;985;-58
2023/12/28 10:44:41;;;;;;;;;;;;;;;;;;5075699;28;912;-58
2023/12/28 10:47:09;;;;;;;;;;;;;;;;;;5075422;28;1037;-57
2023/12/28 10:49:36;;;;;;;;;;;;;;;;;;5075151;28;994;-57
2023/12/28 10:52:02;;;;;;;;;;;;;;;;;;5074668;28;869;-57
2023/12/28 10:54:36;;;;;;;;;;;;;;;;;;5073292;28;902;-57
2023/12/28 10:57:27;;;;;;;;;;;;;;;;;;5073109;28;1976;-57
2023/12/28 10:59:55;;;;;;;;;;;;;;;;;;5073328;28;1712;-57
2023/12/28 11:02:21;;;;;;;;;;;;;;;;;;5074770;28;974;-57
2023/12/28 11:04:50;;;;;;;;;;;;;;;;;;5074808;28;837;-57
2023/12/28 11:07:17;;;;;;;;;;;;;;;;;;5074664;28;887;-57
2023/12/28 11:09:43;;;;;;;;;;;;;;;;;;5073971;28;856;-57
2023/12/28 11:12:11;;;;;;;;;;;;;;;;;;5071600;28;1374;-58
2023/12/28 11:14:40;;;;;;;;;;;;;;;;;;5072607;28;924;-58
2023/12/28 11:17:05;;;;;;;;;;;;;;;;;;5072729;28;1902;-57
2023/12/28 11:19:31;;;;;;;;;;;;;;;;;;5072778;28;911;-58
2023/12/28 11:21:59;;;;;;;;;;;;;;;;;;5072440;28;959;-59
2023/12/28 11:24:25;;;;;;;;;;;;;;;;;;5072984;28;848;-58
2023/12/28 11:26:56;;;;;;;;;;;;;;;;;;5074064;28;907;-58
2023/12/28 11:29:21;;;;;;;;;;;;;;;;;;5074228;28;825;-57
2023/12/28 11:31:53;;;;;;;;;;;;;;;;;;5074101;28;893;-57
2023/12/28 11:34:18;;;;;;;;;;;;;;;;;;5073478;28;852;-58
2023/12/28 11:36:46;;;;;;;;;;;;;;;;;;5074199;28;1906;-57
2023/12/28 11:39:12;;;;;;;;;;;;;;;;;;5072470;28;1604;-57
2023/12/28 11:41:37;;;;;;;;;;;;;;;;;;5074354;28;845;-58
2023/12/28 11:44:05;;;;;;;;;;;;;;;;;;5074481;28;856;-58
2023/12/28 11:46:30;;;;;;;;;;;;;;;;;;5073162;28;849;-58
2023/12/28 11:49:08;;;;;;;;;;;;;;;;;;5073796;28;833;-58
2023/12/28 11:51:35;;;;;;;;;;;;;;;;;;5074436;28;833;-58
2023/12/28 11:54:01;;;;;;;;;;;;;;;;;;5073890;28;995;-57
2023/12/28 11:56:26;;;;;;;;;;;;;;;;;;5074252;28;1968;-58
2023/12/28 11:58:51;;;;;;;;;;;;;;;;;;5056326;28;857;-59
2023/12/28 12:01:17;;;;;;;;;;;;;;;;;;5072872;28;1357;-56
2023/12/28 12:03:43;;;;;;;;;;;;;;;;;;5073164;28;935;-57
2023/12/28 12:06:08;;;;;;;;;;;;;;;;;;5074199;28;837;-58
2023/12/28 12:08:33;;;;;;;;;;;;;;;;;;5073856;28;821;-58
2023/12/28 12:11:04;;;;;;;;;;;;;;;;;;5072417;28;821;-58
2023/12/28 12:13:30;;;;;;;;;;;;;;;;;;5072421;28;904;-58
2023/12/28 12:15:56;;;;;;;;;;;;;;;;;;5071993;28;1909;-58
2023/12/28 12:18:21;;;;;;;;;;;;;;;;;;5071926;28;841;-58
2023/12/28 12:20:47;;;;;;;;;;;;;;;;;;5070602;28;956;-58
2023/12/28 12:23:12;;;;;;;;;;;;;;;;;;5070802;28;923;-57
2023/12/28 12:25:38;;;;;;;;;;;;;;;;;;5072664;28;805;-57
2023/12/28 12:28:03;;;;;;;;;;;;;;;;;;5073826;28;987;-57
2023/12/28 12:30:29;;;;;;;;;;;;;;;;;;5074030;28;1146;-57
2023/12/28 12:32:54;;;;;;;;;;;;;;;;;;5073656;28;861;-58
2023/12/28 12:35:21;;;;;;;;;;;;;;;;;;5073350;28;868;-58
2023/12/28 12:37:49;;;;;;;;;;;;;;;;;;5073370;28;1913;-57
2023/12/28 12:40:15;;;;;;;;;;;;;;;;;;5073619;28;880;-58
2023/12/28 12:42:42;;;;;;;;;;;;;;;;;;5073679;28;900;-57
2023/12/28 12:45:07;;;;;;;;;;;;;;;;;;5075558;28;864;-56
2023/12/28 12:47:34;;;;;;;;;;;;;;;;;;5059606;28;927;-57
2023/12/28 12:49:59;;;;;;;;;;;;;;;;;;5077320;28;915;-57
2023/12/28 12:52:25;;;;;;;;;;;;;;;;;;5077086;28;883;-57
2023/12/28 12:54:54;;;;;;;;;;;;;;;;;;5075684;28;975;-56
2023/12/28 12:57:19;;;;;;;;;;;;;;;;;;5075719;28;1890;-57
2023/12/28 12:59:45;;;;;;;;;;;;;;;;;;5077512;28;864;-57
2023/12/28 13:02:10;;;;;;;;;;;;;;;;;;5077200;28;875;-57
2023/12/28 13:04:37;;;;;;;;;;;;;;;;;;5076947;28;982;-57
2023/12/28 13:07:03;;;;;;;;;;;;;;;;;;5076966;28;974;-57
2023/12/28 13:09:28;;;;;;;;;;;;;;;;;;5077078;28;777;-58
2023/12/28 13:11:54;;;;;;;;;;;;;;;;;;5075603;28;1176;-58
2023/12/28 13:14:20;;;;;;;;;;;;;;;;;;5075142;28;927;-57
2023/12/28 13:16:48;;;;;;;;;;;;;;;;;;5074975;28;1901;-57
2023/12/28 13:19:13;;;;;;;;;;;;;;;;;;5075277;28;931;-57
2023/12/28 13:21:38;;;;;;;;;;;;;;;;;;5075232;28;943;-57
2023/12/28 13:24:03;;;;;;;;;;;;;;;;;;5074505;28;849;-57
2023/12/28 13:26:29;;;;;;;;;;;;;;;;;;5075219;28;789;-58
2023/12/28 13:28:54;;;;;;;;;;;;;;;;;;5076462;28;840;-57
2023/12/28 13:31:19;;;;;;;;;;;;;;;;;;5076869;28;924;-57
2023/12/28 13:33:45;;;;;;;;;;;;;;;;;;5076372;28;1053;-57
2023/12/28 13:36:10;;;;;;;;;;;;;;;;;;5077045;28;1976;-57
2023/12/28 13:38:36;;;;;;;;;;;;;;;;;;5076726;28;1056;-58
2023/12/28 13:41:01;;;;;;;;;;;;;;;;;;5076864;28;907;-57
2023/12/28 13:43:26;;;;;;;;;;;;;;;;;;5077230;28;923;-57
2023/12/28 13:45:51;;;;;;;;;;;;;;;;;;5076470;28;892;-56
2023/12/28 13:48:17;;;;;;;;;;;;;;;;;;5076461;28;1364;-56
2023/12/28 13:50:42;;;;;;;;;;;;;;;;;;5076793;28;857;-58
2023/12/28 13:53:09;;;;;;;;;;;;;;;;;;5074936;28;2513;-57
2023/12/28 13:55:35;;;;;;;;;;;;;;;;;;5074655;28;1934;-56
2023/12/28 13:58:00;;;;;;;;;;;;;;;;;;5075405;28;829;-56
2023/12/28 14:00:25;;;;;;;;;;;;;;;;;;5076193;28;999;-56
2023/12/28 14:02:52;;;;;;;;;;;;;;;;;;5076017;28;892;-56
2023/12/28 14:05:19;;;;;;;;;;;;;;;;;;5076139;28;817;-57
2023/12/28 14:07:44;;;;;;;;;;;;;;;;;;5076045;28;817;-57
2023/12/28 14:10:09;;;;;;;;;;;;;;;;;;5076284;28;991;-57
2023/12/28 14:12:35;;;;;;;;;;;;;;;;;;5075464;28;872;-57
2023/12/28 14:15:01;;;;;;;;;;;;;;;;;;5074137;28;924;-56
2023/12/28 14:17:26;;;;;;;;;;;;;;;;;;5072794;28;1961;-57
2023/12/28 14:19:52;;;;;;;;;;;;;;;;;;5074034;28;908;-58
2023/12/28 14:22:17;;;;;;;;;;;;;;;;;;5073830;28;1017;-58
2023/12/28 14:24:42;;;;;;;;;;;;;;;;;;5073671;28;746;-56
2023/12/28 14:27:07;;;;;;;;;;;;;;;;;;5073122;28;880;-57
2023/12/28 14:29:33;;;;;;;;;;;;;;;;;;5075556;28;962;-57
2023/12/28 14:31:59;;;;;;;;;;;;;;;;;;5075967;28;892;-57
2023/12/28 14:34:24;;;;;;;;;;;;;;;;;;5076155;28;821;-57
2023/12/28 14:36:50;;;;;;;;;;;;;;;;;;5075494;28;1968;-56
2023/12/28 14:39:18;;;;;;;;;;;;;;;;;;5075438;28;841;-57
2023/12/28 14:41:43;;;;;;;;;;;;;;;;;;5075999;28;844;-57
2023/12/28 14:44:08;;;;;;;;;;;;;;;;;;5076184;28;911;-57
2023/12/28 14:46:34;;;;;;;;;;;;;;;;;;5075917;28;737;-56
2023/12/28 14:49:01;;;;;;;;;;;;;;;;;;5075687;28;844;-56
2023/12/28 14:51:27;;;;;;;;;;;;;;;;;;5075495;28;904;-57
2023/12/28 14:53:53;;;;;;;;;;;;;;;;;;5074880;28;886;-56
2023/12/28 14:56:18;;;;;;;;;;;;;;;;;;5073252;28;1933;-56
2023/12/28 14:58:47;;;;;;;;;;;;;;;;;;5075446;28;855;-57
2023/12/28 15:01:20;;;;;;;;;;;;;;;;;;5075274;28;939;-57
2023/12/28 15:03:45;;;;;;;;;;;;;;;;;;5075412;28;892;-57
2023/12/28 15:06:10;;;;;;;;;;;;;;;;;;5073766;28;1097;-57
2023/12/28 15:08:35;;;;;;;;;;;;;;;;;;5075246;28;805;-56
2023/12/28 15:11:01;;;;;;;;;;;;;;;;;;5074928;28;907;-57
2023/12/28 15:13:27;;;;;;;;;;;;;;;;;;5073880;28;852;-57
2023/12/28 15:15:52;;;;;;;;;;;;;;;;;;5073383;28;1898;-57
2023/12/28 15:18:18;;;;;;;;;;;;;;;;;;5073603;28;1003;-56
2023/12/28 15:20:44;;;;;;;;;;;;;;;;;;5073878;28;1018;-58
2023/12/28 15:23:10;;;;;;;;;;;;;;;;;;5073511;28;821;-56
2023/12/28 15:25:35;;;;;;;;;;;;;;;;;;5073959;28;955;-57
2023/12/28 15:28:00;;;;;;;;;;;;;;;;;;5073887;28;997;-57
2023/12/28 15:30:25;;;;;;;;;;;;;;;;;;5074913;28;852;-57
2023/12/28 15:32:51;;;;;;;;;;;;;;;;;;5073292;28;845;-57
2023/12/28 15:35:17;;;;;;;;;;;;;;;;;;5073373;28;931;-57
2023/12/28 15:37:42;;;;;;;;;;;;;;;;;;5074401;28;1886;-57
2023/12/28 15:40:07;;;;;;;;;;;;;;;;;;5074199;28;927;-56
2023/12/28 15:42:35;;;;;;;;;;;;;;;;;;5074087;28;904;-57
2023/12/28 15:45:00;;;;;;;;;;;;;;;;;;5072659;28;912;-56
2023/12/28 15:47:27;;;;;;;;;;;;;;;;;;5073131;28;825;-57
2023/12/28 15:49:53;;;;;;;;;;;;;;;;;;5074066;28;903;-57
2023/12/28 15:52:18;;;;;;;;;;;;;;;;;;5073855;28;821;-56
2023/12/28 15:54:43;;;;;;;;;;;;;;;;;;5074143;28;913;-58
2023/12/28 15:57:09;;;;;;;;;;;;;;;;;;5074314;28;1893;-57
2023/12/28 15:59:34;;;;;;;;;;;;;;;;;;5074267;28;813;-57
2023/12/28 16:02:00;;;;;;;;;;;;;;;;;;5072488;28;1197;-56
2023/12/28 16:04:25;;;;;;;;;;;;;;;;;;5072411;28;1412;-57
2023/12/28 16:06:50;;;;;;;;;;;;;;;;;;5072924;28;1089;-56
2023/12/28 16:09:16;;;;;;;;;;;;;;;;;;5073754;28;829;-57
2023/12/28 16:11:41;;;;;;;;;;;;;;;;;;5073843;28;928;-57
2023/12/28 16:14:06;;;;;;;;;;;;;;;;;;5073498;28;884;-57
2023/12/28 16:16:32;;;;;;;;;;;;;;;;;;5071386;28;1965;-57
2023/12/28 16:18:57;;;;;;;;;;;;;;;;;;5069972;28;1038;-57
2023/12/28 16:21:23;;;;;;;;;;;;;;;;;;5070399;28;937;-57
2023/12/28 16:23:48;;;;;;;;;;;;;;;;;;5053703;28;943;-58
2023/12/28 16:26:14;;;;;;;;;;;;;;;;;;5071546;28;1096;-57
2023/12/28 16:28:39;;;;;;;;;;;;;;;;;;5072455;28;821;-57
2023/12/28 16:31:05;;;;;;;;;;;;;;;;;;5073921;28;833;-57
2023/12/28 16:33:30;;;;;;;;;;;;;;;;;;5074108;28;927;-57
2023/12/28 16:35:56;;;;;;;;;;;;;;;;;;5074348;28;1949;-56
2023/12/28 16:38:22;;;;;;;;;;;;;;;;;;5073740;28;832;-56
2023/12/28 16:40:47;;;;;;;;;;;;;;;;;;5073748;28;851;-57
2023/12/28 16:43:12;;;;;;;;;;;;;;;;;;5073522;28;974;-56
2023/12/28 16:45:39;;;;;;;;;;;;;;;;;;5074147;28;852;-57
2023/12/28 16:48:05;;;;;;;;;;;;;;;;;;5072193;28;1380;-57
2023/12/28 16:50:30;;;;;;;;;;;;;;;;;;5073729;28;1007;-57
2023/12/28 16:52:55;;;;;;;;;;;;;;;;;;5073302;28;974;-56
2023/12/28 16:55:21;;;;;;;;;;;;;;;;;;5073338;28;1062;-57
2023/12/28 16:57:46;;;;;;;;;;;;;;;;;;5073569;28;1902;-57
2023/12/28 17:00:11;;;;;;;;;;;;;;;;;;5073230;28;1093;-57
2023/12/28 17:02:37;;;;;;;;;;;;;;;;;;5073467;28;931;-58
2023/12/28 17:05:04;;;;;;;;;;;;;;;;;;5072324;28;829;-57